createdAt,value
2022-10-02T00:00:00.098Z,11.90
2022-10-02T00:02:34.096Z,12.00
2022-10-02T00:05:10.550Z,12.00
2022-10-02T00:07:42.261Z,12.00
2022-10-02T00:10:15.429Z,12.00
2022-10-02T00:12:46.733Z,12.00
2022-10-02T00:15:18.357Z,12.00
2022-10-02T00:17:49.867Z,12.00
2022-10-02T00:20:23.739Z,12.10
2022-10-02T00:22:57.070Z,12.10
2022-10-02T00:25:28.358Z,12.00
2022-10-02T00:28:08.190Z,12.00
2022-10-02T00:30:46.494Z,12.10
2022-10-02T00:33:25.035Z,12.20
2022-10-02T00:36:07.642Z,12.20
2022-10-02T00:38:52.310Z,12.30
2022-10-02T00:41:37.749Z,12.30
2022-10-02T00:44:23.854Z,12.30
2022-10-02T00:47:01.038Z,12.30
2022-10-02T00:49:47.096Z,12.30
2022-10-02T00:52:38.444Z,12.30
2022-10-02T00:55:35.708Z,12.30
2022-10-02T00:58:19.277Z,12.30
2022-10-02T01:00:56.022Z,12.20
2022-10-02T01:03:27.732Z,12.20
2022-10-02T01:05:55.864Z,12.20
2022-10-02T01:08:25.508Z,12.10
2022-10-02T01:10:53.761Z,12.00
2022-10-02T01:13:21.946Z,11.90
2022-10-02T01:15:52.970Z,11.90
2022-10-02T01:18:21.369Z,11.80
2022-10-02T01:20:52.569Z,11.80
2022-10-02T01:23:31.910Z,11.70
2022-10-02T01:26:01.736Z,11.70
2022-10-02T01:28:30.587Z,11.70
2022-10-02T01:31:07.563Z,11.70
2022-10-02T01:33:36.318Z,11.70
2022-10-02T01:36:04.539Z,11.70
2022-10-02T01:38:32.833Z,11.80
2022-10-02T01:41:02.276Z,11.90
2022-10-02T01:43:33.273Z,11.90
2022-10-02T01:46:21.990Z,12.00
2022-10-02T01:48:58.705Z,12.00
2022-10-02T01:51:46.113Z,11.90
2022-10-02T01:54:21.959Z,12.00
2022-10-02T01:57:00.194Z,12.00
2022-10-02T01:59:39.152Z,12.00
2022-10-02T02:02:15.680Z,12.00
2022-10-02T02:04:52.858Z,12.10
2022-10-02T02:07:28.804Z,12.20
2022-10-02T02:10:03.967Z,12.20
2022-10-02T02:12:42.049Z,12.30
2022-10-02T02:15:16.820Z,12.30
2022-10-02T02:17:51.949Z,12.30
2022-10-02T02:20:23.826Z,12.30
2022-10-02T02:22:54.130Z,12.30
2022-10-02T02:25:26.428Z,12.30
2022-10-02T02:27:58.874Z,12.20
2022-10-02T02:30:27.795Z,12.10
2022-10-02T02:33:00.209Z,12.10
2022-10-02T02:35:32.668Z,12.00
2022-10-02T02:38:05.525Z,12.00
2022-10-02T02:40:38.800Z,12.00
2022-10-02T02:43:15.665Z,12.00
2022-10-02T02:45:49.784Z,12.00
2022-10-02T02:48:21.661Z,11.90
2022-10-02T02:50:55.037Z,11.90
2022-10-02T02:53:25.881Z,11.90
2022-10-02T02:55:57.035Z,11.90
2022-10-02T02:58:30.515Z,11.90
2022-10-02T03:00:59.039Z,11.90
2022-10-02T03:03:27.273Z,11.90
2022-10-02T03:06:03.847Z,12.00
2022-10-02T03:08:36.475Z,12.00
2022-10-02T03:11:13.155Z,12.00
2022-10-02T03:13:55.113Z,12.00
2022-10-02T03:16:45.595Z,12.00
2022-10-02T03:19:25.771Z,12.00
2022-10-02T03:22:03.050Z,12.00
2022-10-02T03:24:36.978Z,12.00
2022-10-02T03:27:10.463Z,12.00
2022-10-02T03:29:46.500Z,11.90
2022-10-02T03:32:17.716Z,11.90
2022-10-02T03:34:46.100Z,11.80
2022-10-02T03:37:14.243Z,11.80
2022-10-02T03:39:44.515Z,11.80
2022-10-02T03:42:14.425Z,11.80
2022-10-02T03:44:44.944Z,11.80
2022-10-02T03:47:12.979Z,11.80
2022-10-02T03:49:41.055Z,11.80
2022-10-02T03:52:14.654Z,11.90
2022-10-02T03:54:42.838Z,11.90
2022-10-02T03:57:16.111Z,11.90
2022-10-02T03:59:44.307Z,11.90
2022-10-02T04:02:24.298Z,11.80
2022-10-02T04:04:57.468Z,11.80
2022-10-02T04:07:28.983Z,11.80
2022-10-02T04:10:08.721Z,11.80
2022-10-02T04:12:41.853Z,11.90
2022-10-02T04:15:20.125Z,11.90
2022-10-02T04:17:58.748Z,11.90
2022-10-02T04:20:33.216Z,11.90
2022-10-02T04:23:07.823Z,12.00
2022-10-02T04:25:40.924Z,12.10
2022-10-02T04:28:15.179Z,12.00
2022-10-02T04:30:43.315Z,12.10
2022-10-02T04:33:15.030Z,12.00
2022-10-02T04:35:54.099Z,11.90
2022-10-02T04:38:48.512Z,11.90
2022-10-02T04:41:56.383Z,11.90
2022-10-02T04:44:38.130Z,11.80
2022-10-02T04:47:32.479Z,11.80
2022-10-02T04:50:34.980Z,11.80
2022-10-02T04:53:17.514Z,11.90
2022-10-02T04:56:06.896Z,11.90
2022-10-02T04:58:50.385Z,11.80
2022-10-02T05:01:30.162Z,11.80
2022-10-02T05:04:14.674Z,11.90
2022-10-02T05:07:02.248Z,12.00
2022-10-02T05:09:34.295Z,11.90
2022-10-02T05:12:24.298Z,11.90
2022-10-02T05:15:24.680Z,11.90
2022-10-02T05:18:19.218Z,11.80
2022-10-02T05:21:02.071Z,11.80
2022-10-02T05:23:46.469Z,11.70
2022-10-02T05:26:39.884Z,11.80
2022-10-02T05:29:26.641Z,11.70
2022-10-02T05:32:16.886Z,11.70
2022-10-02T05:34:59.722Z,11.70
2022-10-02T05:37:42.889Z,11.70
2022-10-02T05:40:22.994Z,11.70
2022-10-02T05:42:59.531Z,11.70
2022-10-02T05:45:32.083Z,11.70
2022-10-02T05:48:07.504Z,11.70
2022-10-02T05:50:37.907Z,11.70
2022-10-02T05:53:14.553Z,11.70
2022-10-02T05:55:50.212Z,11.70
2022-10-02T05:58:23.402Z,11.70
2022-10-02T06:00:56.947Z,11.70
2022-10-02T06:03:32.740Z,11.70
2022-10-02T06:06:07.364Z,11.70
2022-10-02T06:08:41.230Z,11.70
2022-10-02T06:11:17.331Z,11.70
2022-10-02T06:13:50.792Z,11.70
2022-10-02T06:16:23.356Z,11.70
2022-10-02T06:18:56.915Z,11.70
2022-10-02T06:21:32.502Z,11.70
2022-10-02T06:24:05.608Z,11.70
2022-10-02T06:26:42.548Z,11.70
2022-10-02T06:29:20.604Z,11.80
2022-10-02T06:31:58.889Z,11.70
2022-10-02T06:34:27.851Z,11.70
2022-10-02T06:37:20.542Z,11.70
2022-10-02T06:40:14.095Z,11.70
2022-10-02T06:42:53.678Z,11.70
2022-10-02T06:45:32.654Z,11.70
2022-10-02T06:48:07.084Z,11.70
2022-10-02T06:50:50.657Z,11.70
2022-10-02T06:53:37.303Z,11.70
2022-10-02T06:56:23.399Z,11.70
2022-10-02T06:59:06.558Z,11.70
2022-10-02T07:01:49.679Z,11.70
2022-10-02T07:04:47.589Z,11.70
2022-10-02T07:07:28.502Z,11.80
2022-10-02T07:10:14.975Z,11.70
2022-10-02T07:13:07.777Z,11.70
2022-10-02T07:16:09.064Z,11.70
2022-10-02T07:18:50.843Z,11.70
2022-10-02T07:21:28.336Z,11.70
2022-10-02T07:24:05.535Z,11.70
2022-10-02T07:26:49.978Z,11.70
2022-10-02T07:29:37.098Z,11.80
2022-10-02T07:32:38.135Z,11.80
2022-10-02T07:35:30.913Z,11.80
2022-10-02T07:38:20.075Z,11.80
2022-10-02T07:40:59.890Z,11.80
2022-10-02T07:43:42.385Z,11.80
2022-10-02T07:46:18.082Z,11.80
2022-10-02T07:49:00.213Z,11.80
2022-10-02T07:51:49.790Z,11.80
2022-10-02T07:54:49.058Z,11.80
2022-10-02T07:57:30.337Z,11.80
2022-10-02T08:00:05.492Z,11.90
2022-10-02T08:02:40.669Z,11.90
2022-10-02T08:05:21.843Z,11.90
2022-10-02T08:07:53.290Z,11.90
2022-10-02T08:10:26.812Z,12.00
2022-10-02T08:13:06.004Z,12.00
2022-10-02T08:15:38.640Z,12.00
2022-10-02T08:18:35.874Z,12.00
2022-10-02T08:21:11.544Z,12.00
2022-10-02T08:23:44.688Z,12.00
2022-10-02T08:26:19.226Z,12.00
2022-10-02T08:29:08.606Z,12.10
2022-10-02T08:31:40.180Z,12.10
2022-10-02T08:34:17.657Z,12.20
2022-10-02T08:37:08.406Z,12.20
2022-10-02T08:40:12.527Z,12.20
2022-10-02T08:43:08.769Z,12.20
2022-10-02T08:46:14.357Z,12.30
2022-10-02T08:49:27.494Z,12.30
2022-10-02T08:52:29.916Z,12.20
2022-10-02T08:55:34.289Z,12.20
2022-10-02T08:58:44.071Z,12.20
2022-10-02T09:01:31.469Z,12.30
2022-10-02T09:04:32.237Z,12.20
2022-10-02T09:07:43.787Z,12.30
2022-10-02T09:10:51.565Z,12.20
2022-10-02T09:13:46.829Z,12.30
2022-10-02T09:16:26.484Z,12.30
2022-10-02T09:19:03.005Z,12.40
2022-10-02T09:21:52.944Z,12.40
2022-10-02T09:24:59.334Z,12.50
2022-10-02T09:27:57.764Z,12.40
2022-10-02T09:30:47.993Z,12.50
2022-10-02T09:33:49.690Z,12.50
2022-10-02T09:37:06.815Z,12.50
2022-10-02T09:40:25.772Z,12.50
2022-10-02T09:43:41.430Z,12.60
2022-10-02T09:46:36.243Z,12.60
2022-10-02T09:49:51.931Z,12.60
2022-10-02T09:53:01.647Z,12.50
2022-10-02T09:55:58.004Z,12.60
2022-10-02T09:58:59.145Z,12.60
2022-10-02T10:02:02.099Z,12.60
2022-10-02T10:05:06.567Z,12.70
2022-10-02T10:08:05.810Z,12.70
2022-10-02T10:10:49.469Z,12.70
2022-10-02T10:13:47.236Z,12.90
2022-10-02T10:16:38.943Z,12.90
2022-10-02T10:19:39.560Z,12.90
2022-10-02T10:22:32.352Z,12.80
2022-10-02T10:25:42.964Z,12.90
2022-10-02T10:28:45.258Z,12.90
2022-10-02T10:31:45.820Z,12.90
2022-10-02T10:34:46.098Z,12.90
2022-10-02T10:37:54.666Z,12.90
2022-10-02T10:40:38.479Z,12.90
2022-10-02T10:43:47.749Z,12.90
2022-10-02T10:46:38.356Z,12.80
2022-10-02T10:49:23.474Z,12.90
2022-10-02T10:52:07.462Z,12.90
2022-10-02T10:54:57.202Z,12.90
2022-10-02T10:58:01.270Z,13.00
2022-10-02T11:00:34.666Z,12.90
2022-10-02T11:03:42.550Z,13.00
2022-10-02T11:06:53.222Z,13.10
2022-10-02T11:09:44.000Z,13.10
2022-10-02T11:12:29.189Z,13.20
2022-10-02T11:15:18.624Z,13.20
2022-10-02T11:18:10.275Z,13.20
2022-10-02T11:21:21.432Z,13.20
2022-10-02T11:24:13.607Z,13.20
2022-10-02T11:27:03.368Z,13.20
2022-10-02T11:29:54.219Z,13.10
2022-10-02T11:32:59.721Z,13.00
2022-10-02T11:35:53.474Z,13.00
2022-10-02T11:38:56.054Z,13.00
2022-10-02T11:41:45.160Z,13.10
2022-10-02T11:44:22.234Z,13.10
2022-10-02T11:47:15.949Z,13.10
2022-10-02T11:50:02.094Z,13.10
2022-10-02T11:52:57.976Z,13.10
2022-10-02T11:55:41.085Z,13.10
2022-10-02T11:58:18.496Z,13.20
2022-10-02T12:01:14.945Z,13.30
2022-10-02T12:03:56.570Z,13.30
2022-10-02T12:06:42.162Z,13.30
2022-10-02T12:09:18.420Z,13.30
2022-10-02T12:11:55.738Z,13.20
2022-10-02T12:14:33.282Z,13.20
2022-10-02T12:17:11.972Z,13.20
2022-10-02T12:20:16.803Z,13.20
2022-10-02T12:23:09.984Z,13.20
2022-10-02T12:26:04.686Z,13.30
2022-10-02T12:28:44.207Z,13.30
2022-10-02T12:31:21.045Z,13.30
2022-10-02T12:34:01.310Z,13.30
2022-10-02T12:36:42.805Z,13.30
2022-10-02T12:39:25.637Z,13.30
2022-10-02T12:42:06.354Z,13.40
2022-10-02T12:44:47.691Z,13.30
2022-10-02T12:47:40.983Z,13.40
2022-10-02T12:50:23.346Z,13.40
2022-10-02T12:53:19.192Z,13.40
2022-10-02T12:56:22.986Z,13.40
2022-10-02T12:59:02.631Z,13.40
2022-10-02T13:02:06.185Z,13.40
2022-10-02T13:05:07.656Z,13.40
2022-10-02T13:08:14.170Z,13.30
2022-10-02T13:10:45.651Z,13.40
2022-10-02T13:13:43.399Z,13.40
2022-10-02T13:16:21.196Z,13.30
2022-10-02T13:19:21.136Z,13.40
2022-10-02T13:21:59.010Z,13.40
2022-10-02T13:24:43.115Z,13.20
2022-10-02T13:27:26.334Z,13.00
2022-10-02T13:30:11.802Z,13.00
2022-10-02T13:33:06.040Z,12.90
2022-10-02T13:35:53.404Z,12.90
2022-10-02T13:38:39.253Z,12.80
2022-10-02T13:41:20.797Z,12.90
2022-10-02T13:44:04.997Z,12.90
2022-10-02T13:46:53.543Z,12.90
2022-10-02T13:49:38.053Z,12.90
2022-10-02T13:52:14.599Z,13.00
2022-10-02T13:54:57.732Z,13.00
2022-10-02T13:57:44.368Z,12.90
2022-10-02T14:00:24.752Z,12.90
2022-10-02T14:03:05.998Z,12.90
2022-10-02T14:05:43.316Z,12.90
2022-10-02T14:08:40.989Z,12.90
2022-10-02T14:11:22.521Z,12.90
2022-10-02T14:14:03.740Z,12.90
2022-10-02T14:16:49.310Z,12.90
2022-10-02T14:19:35.317Z,13.00
2022-10-02T14:22:21.441Z,13.00
2022-10-02T14:25:05.044Z,13.00
2022-10-02T14:27:58.460Z,13.10
2022-10-02T14:30:38.889Z,13.10
2022-10-02T14:33:16.740Z,13.10
2022-10-02T14:35:53.269Z,13.10
2022-10-02T14:38:45.490Z,13.10
2022-10-02T14:41:48.589Z,13.10
2022-10-02T14:44:46.831Z,13.10
2022-10-02T14:47:36.172Z,13.10
2022-10-02T14:50:24.104Z,13.10
2022-10-02T14:53:21.764Z,13.10
2022-10-02T14:56:24.173Z,13.00
2022-10-02T14:59:09.877Z,13.00
2022-10-02T15:01:44.502Z,13.00
2022-10-02T15:04:29.428Z,13.00
2022-10-02T15:07:08.310Z,13.00
2022-10-02T15:09:50.562Z,13.00
2022-10-02T15:12:22.637Z,13.00
2022-10-02T15:15:05.763Z,13.00
2022-10-02T15:17:55.718Z,13.00
2022-10-02T15:20:44.443Z,13.00
2022-10-02T15:23:14.629Z,13.00
2022-10-02T15:25:59.468Z,13.00
2022-10-02T15:28:39.757Z,12.90
2022-10-02T15:31:20.416Z,12.90
2022-10-02T15:34:01.488Z,12.90
2022-10-02T15:36:58.500Z,12.90
2022-10-02T15:39:53.324Z,12.90
2022-10-02T15:42:41.911Z,12.90
2022-10-02T15:45:33.510Z,12.90
2022-10-02T15:48:33.811Z,12.80
2022-10-02T15:51:11.700Z,12.80
2022-10-02T15:54:03.990Z,12.80
2022-10-02T15:56:47.258Z,12.80
2022-10-02T15:59:31.468Z,12.80
2022-10-02T16:02:15.895Z,12.80
2022-10-02T16:04:59.911Z,12.90
2022-10-02T16:07:47.946Z,12.90
2022-10-02T16:10:24.441Z,12.90
2022-10-02T16:13:27.083Z,12.90
2022-10-02T16:15:56.842Z,12.90
2022-10-02T16:18:48.077Z,12.90
2022-10-02T16:21:51.821Z,12.90
2022-10-02T16:24:54.297Z,12.90
2022-10-02T16:27:46.296Z,12.90
2022-10-02T16:30:16.103Z,12.90
2022-10-02T16:33:02.778Z,12.90
2022-10-02T16:35:53.856Z,12.80
2022-10-02T16:38:28.344Z,12.80
2022-10-02T16:41:00.579Z,12.70
2022-10-02T16:43:51.226Z,12.70
2022-10-02T16:46:25.435Z,12.60
2022-10-02T16:49:00.623Z,12.60
2022-10-02T16:51:40.248Z,12.60
2022-10-02T16:54:20.724Z,12.60
2022-10-02T16:56:55.202Z,12.50
2022-10-02T16:59:27.387Z,12.60
2022-10-02T17:02:19.054Z,12.50
2022-10-02T17:04:58.978Z,12.60
2022-10-02T17:07:51.221Z,12.50
2022-10-02T17:10:26.149Z,12.60
2022-10-02T17:13:02.040Z,12.50
2022-10-02T17:15:37.829Z,12.40
2022-10-02T17:18:17.920Z,12.40
2022-10-02T17:20:50.955Z,12.30
2022-10-02T17:23:26.004Z,12.30
2022-10-02T17:26:02.318Z,12.20
2022-10-02T17:28:37.268Z,12.10
2022-10-02T17:31:35.773Z,12.00
2022-10-02T17:34:20.004Z,12.00
2022-10-02T17:36:55.241Z,12.00
2022-10-02T17:39:36.036Z,12.00
2022-10-02T17:42:15.239Z,12.00
2022-10-02T17:44:56.928Z,11.90
2022-10-02T17:47:47.250Z,11.90
2022-10-02T17:50:37.501Z,11.80
2022-10-02T17:53:40.934Z,11.80
2022-10-02T17:56:41.775Z,11.70
2022-10-02T17:59:34.366Z,11.70
2022-10-02T18:02:14.484Z,11.70
2022-10-02T18:04:59.245Z,11.70
2022-10-02T18:07:41.162Z,11.70
2022-10-02T18:10:18.311Z,11.70
2022-10-02T18:13:07.691Z,11.70
2022-10-02T18:15:51.766Z,11.70
2022-10-02T18:18:29.164Z,11.70
2022-10-02T18:21:09.344Z,11.80
2022-10-02T18:24:05.491Z,11.80
2022-10-02T18:26:46.003Z,11.80
2022-10-02T18:29:25.865Z,11.80
2022-10-02T18:32:11.486Z,11.70
2022-10-02T18:35:09.303Z,11.70
2022-10-02T18:38:01.756Z,11.60
2022-10-02T18:40:31.938Z,11.70
2022-10-02T18:43:21.177Z,11.80
2022-10-02T18:45:56.057Z,11.80
2022-10-02T18:48:59.703Z,11.70
2022-10-02T18:51:59.747Z,11.60
2022-10-02T18:54:31.493Z,11.50
2022-10-02T18:57:15.943Z,11.50
2022-10-02T18:59:57.458Z,11.40
2022-10-02T19:02:41.362Z,11.40
2022-10-02T19:05:28.070Z,11.30
2022-10-02T19:08:10.956Z,11.30
2022-10-02T19:10:42.908Z,11.30
2022-10-02T19:13:22.198Z,11.30
2022-10-02T19:15:52.486Z,11.30
2022-10-02T19:18:22.594Z,11.40
2022-10-02T19:20:59.442Z,11.30
2022-10-02T19:23:35.722Z,11.30
2022-10-02T19:26:08.168Z,11.40
2022-10-02T19:28:45.517Z,11.30
2022-10-02T19:31:14.208Z,11.40
2022-10-02T19:33:49.782Z,11.30
2022-10-02T19:36:22.661Z,11.30
2022-10-02T19:38:55.179Z,11.20
2022-10-02T19:41:23.917Z,11.20
2022-10-02T19:43:56.776Z,11.30
2022-10-02T19:46:39.250Z,11.20
2022-10-02T19:49:08.806Z,11.20
2022-10-02T19:51:44.957Z,11.20
2022-10-02T19:54:20.079Z,11.20
2022-10-02T19:56:48.642Z,11.20
2022-10-02T19:59:20.332Z,11.30
2022-10-02T20:01:53.352Z,11.30
2022-10-02T20:04:23.768Z,11.30
2022-10-02T20:06:54.692Z,11.30
2022-10-02T20:09:30.718Z,11.30
2022-10-02T20:12:05.716Z,11.30
2022-10-02T20:14:40.809Z,11.30
2022-10-02T20:17:10.677Z,11.30
2022-10-02T20:19:45.243Z,11.30
2022-10-02T20:22:19.120Z,11.20
2022-10-02T20:24:55.405Z,11.30
2022-10-02T20:27:34.869Z,11.30
2022-10-02T20:30:08.206Z,11.30
2022-10-02T20:32:39.743Z,11.30
2022-10-02T20:35:15.330Z,11.40
2022-10-02T20:37:44.300Z,11.40
2022-10-02T20:40:19.449Z,11.40
2022-10-02T20:42:54.440Z,11.40
2022-10-02T20:45:26.288Z,11.40
2022-10-02T20:48:39.545Z,11.40
2022-10-02T20:51:26.919Z,11.40
2022-10-02T20:54:28.729Z,11.50
2022-10-02T20:57:59.797Z,11.50
2022-10-02T21:00:28.895Z,11.70
2022-10-02T21:03:32.421Z,11.70
2022-10-02T21:06:46.327Z,11.70
2022-10-02T21:09:52.989Z,11.60
2022-10-02T21:12:58.007Z,11.70
2022-10-02T21:15:53.780Z,11.60
2022-10-02T21:18:48.106Z,11.60
2022-10-02T21:21:50.441Z,11.60
2022-10-02T21:24:45.521Z,11.60
2022-10-02T21:27:45.934Z,11.60
2022-10-02T21:30:17.391Z,11.60
2022-10-02T21:33:02.919Z,11.50
2022-10-02T21:35:44.110Z,11.50
2022-10-02T21:38:35.617Z,11.50
2022-10-02T21:41:55.036Z,11.40
2022-10-02T21:45:04.316Z,11.40
2022-10-02T21:48:08.334Z,11.50
2022-10-02T21:51:12.029Z,11.50
2022-10-02T21:54:13.754Z,11.40
2022-10-02T21:57:32.262Z,11.40
2022-10-02T22:00:19.651Z,11.30
2022-10-02T22:03:21.152Z,11.30
2022-10-02T22:06:10.331Z,11.30
2022-10-02T22:08:51.868Z,11.20
2022-10-02T22:11:29.759Z,11.20
2022-10-02T22:14:06.541Z,11.20
2022-10-02T22:16:46.547Z,11.20
2022-10-02T22:19:32.166Z,11.10
2022-10-02T22:22:17.313Z,11.10
2022-10-02T22:25:08.761Z,11.10
2022-10-02T22:27:55.675Z,11.00
2022-10-02T22:30:27.100Z,11.00
2022-10-02T22:33:13.460Z,11.00
2022-10-02T22:36:04.225Z,11.00
2022-10-02T22:38:37.732Z,11.00
2022-10-02T22:41:12.833Z,11.00
2022-10-02T22:43:48.432Z,10.90
2022-10-02T22:46:29.902Z,11.00
2022-10-02T22:49:02.805Z,10.90
2022-10-02T22:51:39.060Z,10.90
2022-10-02T22:54:21.113Z,10.90
2022-10-02T22:56:59.148Z,10.80
2022-10-02T22:59:32.778Z,10.80
2022-10-02T23:02:08.243Z,10.80
2022-10-02T23:04:44.915Z,10.80
2022-10-02T23:07:17.588Z,10.80
2022-10-02T23:09:52.052Z,10.80
2022-10-02T23:12:28.065Z,10.90
2022-10-02T23:15:29.437Z,10.90
2022-10-02T23:18:01.686Z,10.80
2022-10-02T23:20:37.186Z,10.90
2022-10-02T23:23:15.025Z,10.80
2022-10-02T23:25:51.755Z,10.70
2022-10-02T23:28:26.807Z,10.80
2022-10-02T23:31:06.465Z,10.70
2022-10-02T23:33:45.804Z,10.60
2022-10-02T23:36:24.186Z,10.60
2022-10-02T23:39:00.407Z,10.50
2022-10-02T23:41:46.923Z,10.40
2022-10-02T23:44:32.183Z,10.30
2022-10-02T23:47:25.542Z,10.40
2022-10-02T23:49:55.768Z,10.40
2022-10-02T23:52:41.874Z,10.40
2022-10-02T23:55:25.260Z,10.40
2022-10-02T23:58:21.102Z,10.30
